createdAt,value
2022-10-07T00:00:51.294Z,54.18
2022-10-07T00:03:19.935Z,54.12
2022-10-07T00:05:47.961Z,54.17
2022-10-07T00:08:20.326Z,54.24
2022-10-07T00:10:48.406Z,54.16
2022-10-07T00:13:16.369Z,54.27
2022-10-07T00:15:44.180Z,54.37
2022-10-07T00:18:12.417Z,54.22
2022-10-07T00:20:40.371Z,54.31
2022-10-07T00:23:09.523Z,54.41
2022-10-07T00:25:38.733Z,54.65
2022-10-07T00:28:06.804Z,54.31
2022-10-07T00:30:34.733Z,54.54
2022-10-07T00:33:02.697Z,54.51
2022-10-07T00:35:30.553Z,54.46
2022-10-07T00:37:58.489Z,54.79
2022-10-07T00:40:26.096Z,54.83
2022-10-07T00:42:55.249Z,54.68
2022-10-07T00:45:22.829Z,54.81
2022-10-07T00:47:51.612Z,54.79
2022-10-07T00:50:21.681Z,54.67
2022-10-07T00:52:51.190Z,54.54
2022-10-07T00:55:19.993Z,54.95
2022-10-07T00:57:47.965Z,54.61
2022-10-07T01:00:17.127Z,54.60
2022-10-07T01:02:45.177Z,54.74
2022-10-07T01:05:14.154Z,54.82
2022-10-07T01:07:42.211Z,55.19
2022-10-07T01:10:11.635Z,54.79
2022-10-07T01:12:47.489Z,54.62
2022-10-07T01:15:19.280Z,54.78
2022-10-07T01:17:50.292Z,55.25
2022-10-07T01:20:23.381Z,55.43
2022-10-07T01:23:00.427Z,55.63
2022-10-07T01:25:35.529Z,55.50
2022-10-07T01:28:08.090Z,54.76
2022-10-07T01:30:38.776Z,55.23
2022-10-07T01:33:06.681Z,55.73
2022-10-07T01:35:35.503Z,55.08
2022-10-07T01:38:05.505Z,55.28
2022-10-07T01:40:34.697Z,55.34
2022-10-07T01:43:03.653Z,55.50
2022-10-07T01:45:32.567Z,55.05
2022-10-07T01:48:00.206Z,55.30
2022-10-07T01:50:30.019Z,55.74
2022-10-07T01:53:12.954Z,55.19
2022-10-07T01:55:49.457Z,55.18
2022-10-07T01:58:31.309Z,55.64
2022-10-07T02:01:02.138Z,55.61
2022-10-07T02:03:47.716Z,55.54
2022-10-07T02:06:19.500Z,55.54
2022-10-07T02:08:49.007Z,55.50
2022-10-07T02:11:18.648Z,55.23
2022-10-07T02:13:55.707Z,56.07
2022-10-07T02:16:24.976Z,55.49
2022-10-07T02:18:53.025Z,55.97
2022-10-07T02:21:21.882Z,55.95
2022-10-07T02:23:49.663Z,56.17
2022-10-07T02:26:19.381Z,55.25
2022-10-07T02:28:47.125Z,55.45
2022-10-07T02:31:18.130Z,55.55
2022-10-07T02:33:47.053Z,55.39
2022-10-07T02:36:16.727Z,56.10
2022-10-07T02:38:44.579Z,56.13
2022-10-07T02:41:14.141Z,55.88
2022-10-07T02:43:44.861Z,56.21
2022-10-07T02:46:14.179Z,56.15
2022-10-07T02:48:45.101Z,56.59
2022-10-07T02:51:21.073Z,56.03
2022-10-07T02:53:50.860Z,55.46
2022-10-07T02:56:18.702Z,56.07
2022-10-07T02:58:46.453Z,56.56
2022-10-07T03:01:16.990Z,55.80
2022-10-07T03:03:46.068Z,56.29
2022-10-07T03:06:13.941Z,56.14
2022-10-07T03:08:41.735Z,56.50
2022-10-07T03:11:09.786Z,56.36
2022-10-07T03:13:37.472Z,55.47
2022-10-07T03:16:05.743Z,56.45
2022-10-07T03:18:33.463Z,56.31
2022-10-07T03:21:04.108Z,56.16
2022-10-07T03:23:31.710Z,56.45
2022-10-07T03:25:59.729Z,56.18
2022-10-07T03:28:31.208Z,56.58
2022-10-07T03:31:04.959Z,56.07
2022-10-07T03:33:32.693Z,56.08
2022-10-07T03:36:00.401Z,56.64
2022-10-07T03:38:29.431Z,56.60
2022-10-07T03:40:57.158Z,56.54
2022-10-07T03:43:26.267Z,56.65
2022-10-07T03:45:53.971Z,56.35
2022-10-07T03:48:21.607Z,56.04
2022-10-07T03:50:50.439Z,56.88
2022-10-07T03:53:18.138Z,56.39
2022-10-07T03:55:47.152Z,56.60
2022-10-07T03:58:14.852Z,56.42
2022-10-07T04:00:42.609Z,56.71
2022-10-07T04:03:10.319Z,56.15
2022-10-07T04:05:38.210Z,56.74
2022-10-07T04:08:06.666Z,55.97
2022-10-07T04:10:35.654Z,56.16
2022-10-07T04:13:04.685Z,56.91
2022-10-07T04:15:32.442Z,56.23
2022-10-07T04:18:00.056Z,55.96
2022-10-07T04:20:27.827Z,56.68
2022-10-07T04:22:55.463Z,56.31
2022-10-07T04:27:52.399Z,57.17
2022-10-07T04:30:21.531Z,56.53
2022-10-07T04:32:50.703Z,56.95
2022-10-07T04:35:18.356Z,56.79
2022-10-07T04:37:46.454Z,56.51
2022-10-07T04:40:14.431Z,56.85
2022-10-07T04:42:59.297Z,56.69
2022-10-07T04:45:28.254Z,57.32
2022-10-07T04:47:55.999Z,56.44
2022-10-07T04:50:23.566Z,56.23
2022-10-07T04:52:51.320Z,56.47
2022-10-07T04:55:18.902Z,56.47
2022-10-07T04:57:47.040Z,56.60
2022-10-07T05:00:15.216Z,56.36
2022-10-07T05:02:46.343Z,57.07
2022-10-07T05:05:14.072Z,56.96
2022-10-07T05:07:41.851Z,56.77
2022-10-07T05:10:11.058Z,56.65
2022-10-07T05:12:41.478Z,56.64
2022-10-07T05:15:10.246Z,56.91
2022-10-07T05:17:38.188Z,56.46
2022-10-07T05:20:08.363Z,56.74
2022-10-07T05:22:36.232Z,56.49
2022-10-07T05:25:03.944Z,56.45
2022-10-07T05:27:32.433Z,56.79
2022-10-07T05:30:00.197Z,57.19
2022-10-07T05:32:28.282Z,57.16
2022-10-07T05:34:56.373Z,56.85
2022-10-07T05:37:25.494Z,56.47
2022-10-07T05:39:53.273Z,57.17
2022-10-07T05:42:20.858Z,57.07
2022-10-07T05:44:48.665Z,57.09
2022-10-07T05:47:18.214Z,56.90
2022-10-07T05:49:46.037Z,57.13
2022-10-07T05:52:13.699Z,56.82
2022-10-07T05:54:43.949Z,57.06
2022-10-07T05:57:11.599Z,56.50
2022-10-07T05:59:39.313Z,56.67
2022-10-07T06:02:07.040Z,56.50
2022-10-07T06:04:37.100Z,56.48
2022-10-07T06:07:05.386Z,56.69
2022-10-07T06:09:55.625Z,56.60
2022-10-07T06:12:44.517Z,56.58
2022-10-07T06:15:12.168Z,56.77
2022-10-07T06:17:44.724Z,56.58
2022-10-07T06:20:13.188Z,56.00
2022-10-07T06:22:42.965Z,56.24
2022-10-07T06:25:10.931Z,56.33
2022-10-07T06:27:40.016Z,56.01
2022-10-07T06:30:09.403Z,55.86
2022-10-07T06:32:37.129Z,55.40
2022-10-07T06:35:06.880Z,55.60
2022-10-07T06:37:34.479Z,55.46
2022-10-07T06:40:12.217Z,53.68
2022-10-07T06:42:41.398Z,53.53
2022-10-07T06:45:24.115Z,53.06
2022-10-07T06:47:52.817Z,51.48
2022-10-07T06:50:24.937Z,50.86
2022-10-07T06:52:52.804Z,50.05
2022-10-07T06:55:20.451Z,49.01
2022-10-07T06:57:49.530Z,48.18
2022-10-07T07:00:17.462Z,47.03
2022-10-07T07:02:45.397Z,45.87
2022-10-07T07:05:14.930Z,44.88
2022-10-07T07:07:43.250Z,43.94
2022-10-07T07:10:11.141Z,42.55
2022-10-07T07:12:38.879Z,41.68
2022-10-07T07:15:09.065Z,40.76
2022-10-07T07:17:36.939Z,39.79
2022-10-07T07:20:05.030Z,38.90
2022-10-07T07:22:38.213Z,38.21
2022-10-07T07:25:06.639Z,37.39
2022-10-07T07:27:34.255Z,36.54
2022-10-07T07:30:02.623Z,35.88
2022-10-07T07:32:31.581Z,35.46
2022-10-07T07:35:02.027Z,34.22
2022-10-07T07:37:30.199Z,33.98
2022-10-07T07:39:58.018Z,33.48
2022-10-07T07:42:25.782Z,32.79
2022-10-07T07:44:53.573Z,32.12
2022-10-07T07:47:21.213Z,31.88
2022-10-07T07:49:51.132Z,31.36
2022-10-07T07:52:18.722Z,30.57
2022-10-07T07:54:47.886Z,30.12
2022-10-07T07:57:15.485Z,29.57
2022-10-07T07:59:43.329Z,29.44
2022-10-07T08:02:12.131Z,28.01
2022-10-07T08:04:40.073Z,27.89
2022-10-07T08:07:11.394Z,27.07
2022-10-07T08:09:40.247Z,26.54
2022-10-07T08:12:08.029Z,26.00
2022-10-07T08:14:36.130Z,25.07
2022-10-07T08:23:19.635Z,23.26
2022-10-07T08:25:48.174Z,23.04
2022-10-07T08:28:17.460Z,22.73
2022-10-07T08:38:48.207Z,21.88
2022-10-07T09:15:35.421Z,16.56
2022-10-07T09:18:06.937Z,16.75
2022-10-07T09:20:36.673Z,17.08
2022-10-07T09:23:05.653Z,16.02
2022-10-07T09:25:35.575Z,15.46
2022-10-07T09:28:04.099Z,15.34
2022-10-07T09:47:14.254Z,13.72
2022-10-07T09:50:24.847Z,13.74
2022-10-07T10:25:20.379Z,11.28
2022-10-07T10:27:52.060Z,11.98
2022-10-07T10:30:22.019Z,12.22
2022-10-07T10:33:11.592Z,11.98
2022-10-07T10:35:42.218Z,11.95
2022-10-07T10:38:28.972Z,11.90
2022-10-07T10:41:02.825Z,11.72
2022-10-07T10:43:34.556Z,11.14
2022-10-07T10:46:12.770Z,11.61
2022-10-07T10:48:44.579Z,11.28
2022-10-07T10:51:21.461Z,10.98
2022-10-07T10:53:52.330Z,10.57
2022-10-07T10:56:27.898Z,10.43
2022-10-07T10:59:03.508Z,10.66
2022-10-07T11:01:33.979Z,9.98
2022-10-07T11:04:25.973Z,10.16
2022-10-07T11:06:55.670Z,10.55
2022-10-07T11:09:31.201Z,10.07
2022-10-07T11:12:02.836Z,9.89
2022-10-07T11:14:31.326Z,9.18
2022-10-07T11:17:02.549Z,9.20
2022-10-07T11:19:32.273Z,9.47
2022-10-07T11:22:01.079Z,9.12
2022-10-07T11:24:30.351Z,9.00
2022-10-07T11:27:03.117Z,8.65
2022-10-07T11:29:35.400Z,8.97
2022-10-07T11:32:04.976Z,8.73
2022-10-07T11:34:37.184Z,8.88
2022-10-07T11:37:07.213Z,9.01
2022-10-07T11:39:37.516Z,8.77
2022-10-07T11:42:13.162Z,8.54
2022-10-07T11:44:43.078Z,8.92
2022-10-07T11:47:12.635Z,7.91
2022-10-07T11:49:42.215Z,8.55
2022-10-07T11:52:12.497Z,7.81
2022-10-07T11:54:41.833Z,7.88
2022-10-07T11:57:19.969Z,8.41
2022-10-07T11:59:49.165Z,8.27
2022-10-07T12:02:39.238Z,8.85
2022-10-07T12:05:08.135Z,9.82
2022-10-07T12:07:40.955Z,10.69
2022-10-07T12:10:22.082Z,11.74
2022-10-07T12:12:55.912Z,13.15
2022-10-07T12:15:26.348Z,13.89
2022-10-07T12:17:58.259Z,15.10
2022-10-07T12:20:46.493Z,16.76
2022-10-07T12:23:51.230Z,17.41
2022-10-07T12:26:50.241Z,18.49
2022-10-07T12:29:33.654Z,19.87
2022-10-07T12:32:01.609Z,20.20
2022-10-07T12:34:41.133Z,20.46
2022-10-07T12:37:43.344Z,21.20
2022-10-07T12:40:15.981Z,22.07
2022-10-07T12:42:47.768Z,22.54
2022-10-07T12:45:17.401Z,23.07
2022-10-07T12:47:48.514Z,23.73
2022-10-07T12:50:16.704Z,24.49
2022-10-07T12:52:46.958Z,24.33
2022-10-07T12:55:16.277Z,25.64
2022-10-07T12:57:44.393Z,25.77
2022-10-07T13:00:13.343Z,26.69
2022-10-07T13:03:31.800Z,26.32
2022-10-07T13:06:36.750Z,26.61
2022-10-07T13:09:16.078Z,27.21
2022-10-07T13:12:18.905Z,26.75
2022-10-07T13:14:51.869Z,27.00
2022-10-07T13:17:36.833Z,27.35
2022-10-07T13:20:25.906Z,27.21
2022-10-07T13:22:53.828Z,27.48
2022-10-07T13:25:21.987Z,28.27
2022-10-07T13:27:53.566Z,27.91
2022-10-07T13:30:35.658Z,28.27
2022-10-07T13:33:18.962Z,27.95
2022-10-07T13:35:48.427Z,28.65
2022-10-07T13:38:26.727Z,29.23
2022-10-07T13:40:56.401Z,29.38
2022-10-07T13:43:28.053Z,29.80
2022-10-07T13:45:56.524Z,29.36
2022-10-07T13:48:25.817Z,29.46
2022-10-07T13:50:58.480Z,29.94
2022-10-07T13:53:28.689Z,29.48
2022-10-07T13:56:08.277Z,28.76
2022-10-07T13:58:35.988Z,28.58
2022-10-07T14:01:05.614Z,29.46
2022-10-07T14:03:35.580Z,29.13
2022-10-07T14:06:05.325Z,29.48
2022-10-07T14:08:34.361Z,29.40
2022-10-07T14:13:55.140Z,29.08
2022-10-07T14:16:25.298Z,29.05
2022-10-07T14:18:53.476Z,28.80
2022-10-07T14:21:23.273Z,28.70
2022-10-07T14:23:51.588Z,28.72
2022-10-07T14:26:19.497Z,29.43
2022-10-07T14:28:47.406Z,30.00
2022-10-07T14:31:39.292Z,30.10
2022-10-07T14:34:30.762Z,30.31
2022-10-07T14:37:03.857Z,30.68
2022-10-07T14:39:33.566Z,30.65
2022-10-07T14:42:01.595Z,30.53
2022-10-07T14:44:31.427Z,30.57
2022-10-07T14:47:06.645Z,30.40
2022-10-07T14:49:34.507Z,30.74
2022-10-07T14:52:06.319Z,31.07
2022-10-07T14:54:37.366Z,31.10
2022-10-07T14:57:05.158Z,31.23
2022-10-07T14:59:32.957Z,31.45
2022-10-07T15:02:00.983Z,31.19
2022-10-07T15:04:28.759Z,31.06
2022-10-07T15:06:56.433Z,31.22
2022-10-07T15:09:26.594Z,31.04
2022-10-07T15:12:01.489Z,31.66
2022-10-07T15:14:29.481Z,31.34
2022-10-07T15:16:57.404Z,31.56
2022-10-07T15:19:26.280Z,31.95
2022-10-07T15:21:56.224Z,32.22
2022-10-07T15:24:24.133Z,32.06
2022-10-07T15:26:53.253Z,32.37
2022-10-07T15:29:22.744Z,32.36
2022-10-07T15:31:50.507Z,32.16
2022-10-07T15:34:18.272Z,32.46
2022-10-07T15:36:49.059Z,32.01
2022-10-07T15:39:16.725Z,32.19
2022-10-07T15:41:45.059Z,32.03
2022-10-07T15:44:17.185Z,32.49
2022-10-07T15:46:45.842Z,32.46
2022-10-07T15:49:13.618Z,32.58
2022-10-07T15:51:41.711Z,32.28
2022-10-07T15:54:26.446Z,32.58
2022-10-07T15:56:54.177Z,32.54
2022-10-07T15:59:23.414Z,32.76
2022-10-07T16:01:52.454Z,32.89
2022-10-07T16:04:20.335Z,33.15
2022-10-07T16:06:51.350Z,33.24
2022-10-07T16:09:19.277Z,33.63
2022-10-07T16:11:47.581Z,34.40
2022-10-07T16:14:16.817Z,34.39
2022-10-07T16:16:46.165Z,34.84
2022-10-07T16:19:14.199Z,34.64
2022-10-07T16:21:52.873Z,34.97
2022-10-07T16:24:21.605Z,35.12
2022-10-07T16:26:50.551Z,35.51
2022-10-07T16:29:40.138Z,35.61
2022-10-07T16:32:10.556Z,35.88
2022-10-07T16:34:38.838Z,36.15
2022-10-07T16:37:07.316Z,36.24
2022-10-07T16:49:47.061Z,37.72
2022-10-07T16:52:42.468Z,38.08
2022-10-07T16:59:01.994Z,38.93
2022-10-07T17:01:32.009Z,39.38
2022-10-07T17:04:00.227Z,39.41
2022-10-07T17:06:29.383Z,39.79
2022-10-07T17:08:59.549Z,40.28
2022-10-07T17:11:29.988Z,40.35
2022-10-07T17:13:58.394Z,40.67
2022-10-07T17:16:26.652Z,40.81
2022-10-07T17:18:54.368Z,41.05
2022-10-07T17:21:22.293Z,41.33
2022-10-07T17:23:49.961Z,41.20
2022-10-07T17:26:20.778Z,41.61
2022-10-07T17:28:49.681Z,41.93
2022-10-07T17:31:18.063Z,42.14
2022-10-07T17:33:46.090Z,42.09
2022-10-07T17:36:15.038Z,42.61
2022-10-07T17:38:43.509Z,42.75
2022-10-07T17:41:12.406Z,42.94
2022-10-07T17:43:41.440Z,43.52
2022-10-07T17:46:12.699Z,43.41
2022-10-07T17:48:43.113Z,43.66
2022-10-07T17:51:11.195Z,43.58
2022-10-07T17:53:40.313Z,43.89
2022-10-07T17:56:10.022Z,43.89
2022-10-07T17:58:38.157Z,44.17
2022-10-07T18:01:08.147Z,44.41
2022-10-07T18:03:37.747Z,44.81
2022-10-07T18:06:07.039Z,44.59
2022-10-07T18:08:35.300Z,45.00
2022-10-07T18:11:03.770Z,44.99
2022-10-07T18:13:49.600Z,45.43
2022-10-07T18:16:18.704Z,45.42
2022-10-07T18:18:54.391Z,45.64
2022-10-07T18:21:22.405Z,45.91
2022-10-07T18:23:52.546Z,46.06
2022-10-07T18:26:20.280Z,46.07
2022-10-07T18:28:47.905Z,46.32
2022-10-07T18:31:16.504Z,46.43
2022-10-07T18:33:46.314Z,46.31
2022-10-07T18:36:16.070Z,46.57
2022-10-07T18:38:45.867Z,47.07
2022-10-07T18:41:14.421Z,47.12
2022-10-07T18:43:42.464Z,47.41
2022-10-07T18:46:11.955Z,47.57
2022-10-07T18:48:40.258Z,47.61
2022-10-07T18:51:09.625Z,47.50
2022-10-07T18:53:38.333Z,47.58
2022-10-07T18:56:07.064Z,47.66
2022-10-07T18:58:34.831Z,47.74
2022-10-07T19:01:06.711Z,48.38
2022-10-07T19:03:34.729Z,48.10
2022-10-07T19:06:05.875Z,48.27
2022-10-07T19:08:34.873Z,48.53
2022-10-07T19:11:06.290Z,48.60
2022-10-07T19:13:50.389Z,48.70
2022-10-07T19:16:18.833Z,48.74
2022-10-07T19:18:46.889Z,48.93
2022-10-07T19:21:15.347Z,49.16
2022-10-07T19:23:44.479Z,49.11
2022-10-07T19:26:12.862Z,49.08
2022-10-07T19:28:41.077Z,49.33
2022-10-07T19:31:13.326Z,49.46
2022-10-07T19:33:42.787Z,49.72
2022-10-07T19:36:10.973Z,49.46
2022-10-07T19:38:43.264Z,49.97
2022-10-07T19:41:13.372Z,49.90
2022-10-07T19:43:42.775Z,50.09
2022-10-07T19:46:11.037Z,50.22
2022-10-07T19:48:39.811Z,50.11
2022-10-07T19:51:09.399Z,50.04
2022-10-07T19:53:37.470Z,50.49
2022-10-07T19:56:07.366Z,50.14
2022-10-07T19:58:38.238Z,50.40
2022-10-07T20:01:06.853Z,50.67
2022-10-07T20:03:34.971Z,51.05
2022-10-07T20:06:05.569Z,51.17
2022-10-07T20:08:34.260Z,51.00
2022-10-07T20:11:02.482Z,50.88
2022-10-07T20:13:32.736Z,51.02
2022-10-07T20:16:06.449Z,51.18
2022-10-07T20:18:34.642Z,51.17
2022-10-07T20:21:03.501Z,51.36
2022-10-07T20:23:33.997Z,51.59
2022-10-07T20:26:06.591Z,51.71
2022-10-07T20:28:37.597Z,51.47
2022-10-07T20:31:08.474Z,51.65
2022-10-07T20:33:39.015Z,51.78
2022-10-07T20:36:08.407Z,51.96
2022-10-07T20:38:50.310Z,51.72
2022-10-07T20:41:35.549Z,51.95
2022-10-07T20:44:03.612Z,52.01
2022-10-07T20:46:33.415Z,52.23
2022-10-07T20:49:01.407Z,52.08
2022-10-07T20:51:30.584Z,52.39
2022-10-07T20:53:58.526Z,52.77
2022-10-07T20:56:27.773Z,52.72
2022-10-07T20:58:55.854Z,52.44
2022-10-07T21:01:24.738Z,52.64
2022-10-07T21:03:54.186Z,52.84
2022-10-07T21:06:23.398Z,53.15
2022-10-07T21:08:56.348Z,52.59
2022-10-07T21:11:25.527Z,52.89
2022-10-07T21:13:55.112Z,53.11
2022-10-07T21:16:24.376Z,53.05
2022-10-07T21:19:08.643Z,53.15
2022-10-07T21:21:45.828Z,53.25
2022-10-07T21:24:16.309Z,53.27
2022-10-07T21:26:52.410Z,53.63
2022-10-07T21:29:39.185Z,53.49
2022-10-07T21:32:41.367Z,53.05
2022-10-07T21:35:18.875Z,53.36
2022-10-07T21:37:52.705Z,53.55
2022-10-07T21:41:40.206Z,53.53
2022-10-07T21:44:11.107Z,53.63
2022-10-07T21:46:47.845Z,53.34
2022-10-07T21:49:36.622Z,53.51
2022-10-07T21:52:10.266Z,53.54
2022-10-07T21:54:41.519Z,53.70
2022-10-07T21:57:20.272Z,54.05
2022-10-07T21:59:55.390Z,53.66
2022-10-07T22:02:28.484Z,54.00
2022-10-07T22:05:16.529Z,53.75
2022-10-07T22:08:15.395Z,54.30
2022-10-07T22:10:51.661Z,53.90
2022-10-07T22:13:33.111Z,53.77
2022-10-07T22:16:22.449Z,53.58
2022-10-07T22:19:16.265Z,53.54
2022-10-07T22:22:20.622Z,53.03
2022-10-07T22:25:17.232Z,53.11
2022-10-07T22:28:15.820Z,53.42
2022-10-07T22:31:05.377Z,53.48
2022-10-07T22:34:00.371Z,52.78
2022-10-07T22:36:43.979Z,52.77
2022-10-07T22:39:36.195Z,53.06
2022-10-07T22:44:58.075Z,52.81
2022-10-07T22:59:19.431Z,51.83
2022-10-07T23:05:49.493Z,52.16
2022-10-07T23:12:00.543Z,52.23
2022-10-07T23:15:04.425Z,52.10
2022-10-07T23:21:35.495Z,51.72
2022-10-07T23:24:20.337Z,51.65
2022-10-07T23:26:52.722Z,51.88
2022-10-07T23:32:33.969Z,51.39
2022-10-07T23:35:01.569Z,51.57
2022-10-07T23:37:30.665Z,51.88
2022-10-07T23:39:58.260Z,51.31
2022-10-07T23:42:25.989Z,51.40
2022-10-07T23:44:53.586Z,51.51
2022-10-07T23:47:24.931Z,51.76
2022-10-07T23:49:52.489Z,51.23
2022-10-07T23:52:22.166Z,51.30
2022-10-07T23:54:52.346Z,51.36
